Time;durP1;ratioP1;P1;durP2;ratioP2;P2;SDS_P1;SDS_P2;PMS_P1;PMS_P2;Temp;Humidity;BMP_temperature;BMP_pressure;BME280_temperature;BME280_humidity;BME280_pressure;Samples;Min_cycle;Max_cycle;Signal;HPM_P1;HPM_P2
2022/06/16 00:00:18;;;;;;;5.30;1.60;;;12.50;67.40;;;;;;4123180;28;20039;-86
2022/06/16 00:02:19;;;;;;;3.65;1.15;;;12.50;67.30;;;;;;4099305;28;20169;-87
2022/06/16 00:04:21;;;;;;;5.93;1.45;;;12.50;67.40;;;;;;4114799;28;20038;-87
2022/06/16 00:06:23;;;;;;;6.32;1.80;;;12.50;67.40;;;;;;4126189;28;20116;-86
2022/06/16 00:08:23;;;;;;;3.03;1.38;;;12.50;67.20;;;;;;4116450;28;20067;-88
2022/06/16 00:10:24;;;;;;;2.80;1.30;;;12.50;67.20;;;;;;4117351;28;20034;-87
2022/06/16 00:12:25;;;;;;;4.88;1.60;;;12.50;67.20;;;;;;4109008;28;20030;-86
2022/06/16 00:14:27;;;;;;;3.50;1.50;;;12.40;67.10;;;;;;4120760;28;20499;-85
2022/06/16 00:16:28;;;;;;;5.00;1.35;;;12.40;67.10;;;;;;4120453;28;20403;-87
2022/06/16 00:18:29;;;;;;;4.38;1.42;;;12.40;67.10;;;;;;4133679;28;20026;-86
2022/06/16 00:20:30;;;;;;;8.10;1.50;;;12.40;67.20;;;;;;4116279;28;20146;-86
2022/06/16 00:22:32;;;;;;;5.57;1.85;;;12.40;67.30;;;;;;4120523;28;20027;-86
2022/06/16 00:24:32;;;;;;;5.32;1.90;;;12.30;67.40;;;;;;4124354;28;20030;-86
2022/06/16 00:26:33;;;;;;;4.63;1.25;;;12.30;67.50;;;;;;4111490;28;21260;-86
2022/06/16 00:28:34;;;;;;;5.90;1.10;;;12.40;67.60;;;;;;4115323;28;20034;-86
2022/06/16 00:30:35;;;;;;;3.53;1.33;;;12.30;67.60;;;;;;4119613;28;20030;-86
2022/06/16 00:32:37;;;;;;;2.38;1.33;;;12.30;67.70;;;;;;4106898;28;20030;-87
2022/06/16 00:34:38;;;;;;;3.38;1.15;;;12.30;67.80;;;;;;4119854;28;20497;-85
2022/06/16 00:36:39;;;;;;;6.50;1.70;;;12.30;67.70;;;;;;4118332;28;20034;-86
2022/06/16 00:38:40;;;;;;;3.88;1.10;;;12.30;67.80;;;;;;4127643;28;20030;-86
2022/06/16 00:40:41;;;;;;;9.77;1.67;;;12.30;67.80;;;;;;4110695;28;20058;-86
2022/06/16 00:43:02;;;;;;;1.98;1.10;;;12.30;67.80;;;;;;4122969;28;20038;-86
2022/06/16 00:46:20;;;;;;;2.88;1.00;;;12.30;67.80;;;;;;4139855;28;21459;-86
2022/06/16 00:48:52;;;;;;;3.30;1.50;;;12.30;68.20;;;;;;4125664;28;20039;-85
2022/06/16 00:51:24;;;;;;;1.85;1.15;;;12.30;67.70;;;;;;4122944;28;20070;-86
2022/06/16 00:53:48;;;;;;;5.10;1.02;;;12.30;67.60;;;;;;4132988;28;20827;-86
2022/06/16 00:56:10;;;;;;;;;;;12.30;67.50;;;;;;4123539;28;20046;-87
2022/06/16 00:58:34;;;;;;;2.67;1.20;;;12.30;68.30;;;;;;4135898;28;19910;-87
2022/06/16 01:00:55;;;;;;;3.70;1.02;;;12.30;67.20;;;;;;4137528;28;20076;-87
2022/06/16 01:05:56;;;;;;;3.13;1.27;;;12.20;67.30;;;;;;4119215;28;20052;-86
2022/06/16 01:08:17;;;;;;;4.28;1.20;;;12.30;67.30;;;;;;4134638;28;20065;-87
2022/06/16 01:10:44;;;;;;;7.88;1.52;;;12.20;67.30;;;;;;4127434;28;20507;-86
2022/06/16 01:13:45;;;;;;;4.75;1.38;;;12.20;67.50;;;;;;4122462;28;20034;-86
2022/06/16 01:15:49;;;;;;;2.95;1.25;;;12.20;67.80;;;;;;4135761;28;20042;-86
2022/06/16 01:17:54;;;;;;;2.88;1.10;;;12.20;67.50;;;;;;4103850;28;20027;-86
2022/06/16 01:20:06;;;;;;;1.92;0.90;;;12.20;67.60;;;;;;4100062;28;20422;-86
2022/06/16 01:22:14;;;;;;;3.65;1.60;;;12.10;67.90;;;;;;4133585;28;20053;-86
2022/06/16 01:24:15;;;;;;;5.03;1.48;;;12.10;67.80;;;;;;4123171;28;20049;-86
2022/06/16 01:26:40;;;;;;;3.30;1.38;;;12.10;67.70;;;;;;4140052;28;20053;-86
2022/06/16 01:29:09;;;;;;;7.25;1.50;;;12.10;68.00;;;;;;4120503;28;20066;-86
2022/06/16 01:31:20;;;;;;;7.57;1.60;;;12.10;68.20;;;;;;4123745;28;20962;-85
2022/06/16 01:33:31;;;;;;;7.05;1.70;;;12.10;68.00;;;;;;4138528;28;20034;-85
2022/06/16 01:36:12;;;;;;;3.22;1.17;;;12.10;68.00;;;;;;4122214;28;20745;-86
2022/06/16 01:38:34;;;;;;;3.90;1.20;;;12.10;68.30;;;;;;4113851;28;20046;-86
2022/06/16 01:40:55;;;;;;;9.10;1.33;;;12.10;68.30;;;;;;4109667;28;20397;-86
2022/06/16 01:43:12;;;;;;;3.58;1.38;;;12.10;68.10;;;;;;4121057;28;20034;-87
2022/06/16 01:45:20;;;;;;;5.80;1.35;;;12.00;68.20;;;;;;4116155;28;20031;-86
2022/06/16 01:47:23;;;;;;;3.03;1.30;;;12.00;68.00;;;;;;4136526;28;20114;-86
2022/06/16 01:49:34;;;;;;;7.65;1.40;;;12.00;68.00;;;;;;4131215;28;20030;-86
2022/06/16 01:51:41;;;;;;;4.72;1.63;;;12.00;68.10;;;;;;4122316;28;20125;-86
2022/06/16 01:53:48;;;;;;;7.20;1.85;;;12.00;68.00;;;;;;4115052;28;20031;-87
2022/06/16 01:56:02;;;;;;;6.78;1.55;;;12.00;68.00;;;;;;4139251;28;20509;-86
2022/06/16 01:58:24;;;;;;;5.13;1.42;;;12.00;68.10;;;;;;4123196;28;20088;-85
2022/06/16 02:00:26;;;;;;;7.38;1.58;;;11.90;68.20;;;;;;4128409;28;20037;-85
2022/06/16 02:02:30;;;;;;;4.88;1.60;;;11.90;68.00;;;;;;4139389;28;20053;-85
2022/06/16 02:04:51;;;;;;;5.13;1.40;;;11.90;68.00;;;;;;4135040;28;20108;-86
2022/06/16 02:06:58;;;;;;;8.10;1.30;;;11.90;68.40;;;;;;4138129;28;20144;-85
2022/06/16 02:09:08;;;;;;;7.45;1.50;;;11.80;68.10;;;;;;4131539;28;20031;-86
2022/06/16 02:11:20;;;;;;;6.28;1.50;;;11.80;68.30;;;;;;4122230;28;20109;-86
2022/06/16 02:13:30;;;;;;;6.63;1.67;;;11.80;68.40;;;;;;4120974;28;20023;-86
2022/06/16 02:15:34;;;;;;;6.20;1.60;;;11.80;68.60;;;;;;4120882;28;20142;-86
2022/06/16 02:17:35;;;;;;;5.65;1.30;;;11.80;68.60;;;;;;4135719;28;20394;-86
2022/06/16 02:19:37;;;;;;;10.63;1.98;;;11.70;68.60;;;;;;4113741;28;20023;-85
2022/06/16 02:21:42;;;;;;;7.32;1.50;;;11.80;68.90;;;;;;4119598;28;20089;-85
2022/06/16 02:23:44;;;;;;;3.58;1.50;;;11.80;69.00;;;;;;4138671;28;20033;-85
2022/06/16 02:25:50;;;;;;;6.38;1.60;;;11.70;69.00;;;;;;4121540;28;20035;-85
2022/06/16 02:27:52;;;;;;;6.55;2.20;;;11.70;69.00;;;;;;4135649;28;20029;-86
2022/06/16 02:29:53;;;;;;;8.15;1.63;;;11.70;69.00;;;;;;4129137;28;20092;-86
2022/06/16 02:32:14;;;;;;;3.03;1.45;;;11.70;69.10;;;;;;4119746;28;20036;-87
2022/06/16 02:34:33;;;;;;;8.18;1.80;;;11.70;69.30;;;;;;4134381;28;20042;-87
2022/06/16 02:36:56;;;;;;;7.22;1.80;;;11.70;69.40;;;;;;4119800;28;20049;-86
2022/06/16 02:39:10;;;;;;;6.03;1.73;;;11.70;69.40;;;;;;4119593;28;20050;-86
2022/06/16 02:41:24;;;;;;;9.20;2.08;;;11.60;69.20;;;;;;4118190;28;20133;-86
2022/06/16 02:43:52;;;;;;;5.35;1.40;;;11.60;69.20;;;;;;4115968;28;20030;-86
2022/06/16 02:46:02;;;;;;;5.53;1.75;;;11.60;69.40;;;;;;4133595;28;20076;-86
2022/06/16 02:48:19;;;;;;;5.10;1.95;;;11.60;69.50;;;;;;4118829;28;20041;-86
2022/06/16 02:50:30;;;;;;;5.57;1.58;;;11.60;69.60;;;;;;4121696;28;20230;-87
2022/06/16 02:52:44;;;;;;;7.43;2.08;;;11.50;69.60;;;;;;4139608;28;20486;-87
2022/06/16 02:55:01;;;;;;;4.07;1.85;;;11.50;69.60;;;;;;4136312;28;20451;-86
2022/06/16 02:57:25;;;;;;;6.85;1.98;;;11.50;69.70;;;;;;4136012;28;20021;-86
2022/06/16 02:59:34;;;;;;;4.40;2.22;;;11.50;69.90;;;;;;4122668;28;20070;-86
2022/06/16 03:01:36;;;;;;;7.07;2.45;;;11.40;69.80;;;;;;4128775;28;20026;-86
2022/06/16 03:03:37;;;;;;;7.13;1.90;;;11.40;69.80;;;;;;4120514;28;20037;-86
2022/06/16 03:05:38;;;;;;;3.95;1.70;;;11.40;69.90;;;;;;4133449;28;20029;-85
2022/06/16 03:07:41;;;;;;;9.23;2.00;;;11.40;70.10;;;;;;4135548;28;20042;-86
2022/06/16 03:09:41;;;;;;;7.47;1.92;;;11.40;70.20;;;;;;4113292;28;20042;-86
2022/06/16 03:11:42;;;;;;;5.05;2.03;;;11.30;70.30;;;;;;4104100;28;20189;-86
2022/06/16 03:13:43;;;;;;;5.20;2.05;;;11.30;70.40;;;;;;4135161;28;20034;-87
2022/06/16 03:15:43;;;;;;;6.85;2.35;;;11.30;70.50;;;;;;4133814;28;20057;-86
2022/06/16 03:17:44;;;;;;;5.22;2.03;;;11.30;70.60;;;;;;4117144;28;20034;-86
2022/06/16 03:19:45;;;;;;;6.97;2.25;;;11.30;70.80;;;;;;4135628;28;20037;-86
2022/06/16 03:21:49;;;;;;;5.90;2.00;;;11.20;70.90;;;;;;4138085;28;20034;-86
2022/06/16 03:23:50;;;;;;;5.00;2.20;;;11.20;71.00;;;;;;4137343;28;20152;-86
2022/06/16 03:26:11;;;;;;;4.80;2.47;;;11.20;71.20;;;;;;4133002;28;20038;-86
2022/06/16 03:28:32;;;;;;;5.82;2.20;;;11.20;71.30;;;;;;4134610;28;20041;-87
2022/06/16 03:30:33;;;;;;;7.63;2.20;;;11.20;71.40;;;;;;4117532;28;20026;-85
2022/06/16 03:32:54;;;;;;;10.60;2.40;;;11.20;71.50;;;;;;4128109;28;20022;-86
2022/06/16 03:35:15;;;;;;;4.18;2.28;;;11.20;71.70;;;;;;4126082;28;20034;-86
2022/06/16 03:37:35;;;;;;;4.22;2.30;;;11.20;71.80;;;;;;4134060;28;20030;-86
2022/06/16 03:39:56;;;;;;;8.95;2.72;;;11.20;71.90;;;;;;4133500;28;20029;-86
2022/06/16 03:42:17;;;;;;;6.68;2.20;;;11.20;71.90;;;;;;4134786;28;20041;-85
2022/06/16 03:44:37;;;;;;;7.38;2.55;;;11.20;72.00;;;;;;4138931;28;20061;-86
2022/06/16 03:46:58;;;;;;;4.68;2.15;;;11.20;72.10;;;;;;4122583;28;20030;-86
2022/06/16 03:48:59;;;;;;;7.63;2.45;;;11.30;72.30;;;;;;4118249;28;20073;-87
2022/06/16 03:51:00;;;;;;;8.25;2.45;;;11.30;72.30;;;;;;4117571;28;20035;-86
2022/06/16 03:53:00;;;;;;;6.82;2.63;;;11.30;72.40;;;;;;4135718;28;20037;-86
2022/06/16 03:55:01;;;;;;;8.13;2.97;;;11.30;72.50;;;;;;4135687;28;20030;-86
2022/06/16 03:57:02;;;;;;;4.70;2.00;;;11.30;72.60;;;;;;4141950;28;20089;-86
2022/06/16 03:59:02;;;;;;;8.32;2.35;;;11.30;72.70;;;;;;4147793;28;20050;-85
2022/06/16 04:01:04;;;;;;;13.32;2.78;;;11.30;72.80;;;;;;4131019;28;20085;-85
2022/06/16 04:05:24;;;;;;;7.90;2.53;;;11.30;73.00;;;;;;4130870;28;20030;-86
2022/06/16 04:07:24;;;;;;;10.13;2.38;;;11.30;73.00;;;;;;4123595;28;20886;-87
2022/06/16 04:09:25;;;;;;;7.93;2.28;;;11.40;73.10;;;;;;4120827;28;20054;-86
2022/06/16 04:11:27;;;;;;;5.75;1.98;;;11.40;73.20;;;;;;4123931;28;20027;-86
2022/06/16 04:13:27;;;;;;;10.07;3.08;;;11.40;73.20;;;;;;4119010;28;20029;-86
2022/06/16 04:15:29;;;;;;;14.15;2.75;;;11.40;73.30;;;;;;4122241;28;20053;-86
2022/06/16 04:17:29;;;;;;;7.55;2.72;;;11.40;73.30;;;;;;4123095;28;20069;-86
2022/06/16 04:19:30;;;;;;;7.35;2.67;;;11.50;73.50;;;;;;4136029;28;20037;-86
2022/06/16 04:21:37;;;;;;;15.05;2.90;;;11.50;73.50;;;;;;4125480;28;20053;-87
2022/06/16 04:23:38;;;;;;;8.05;2.83;;;11.50;73.70;;;;;;4108152;28;20495;-86
2022/06/16 04:25:39;;;;;;;5.47;2.70;;;11.60;73.90;;;;;;4139705;28;20033;-86
2022/06/16 04:27:42;;;;;;;11.15;2.60;;;11.60;73.90;;;;;;4136902;28;20110;-87
2022/06/16 04:29:42;;;;;;;7.47;2.70;;;11.70;74.00;;;;;;4121124;28;20073;-86
2022/06/16 04:31:44;;;;;;;10.35;3.00;;;11.70;74.10;;;;;;4136315;28;20034;-87
2022/06/16 04:33:45;;;;;;;7.80;2.80;;;11.70;74.10;;;;;;4138225;28;20029;-86
2022/06/16 04:35:45;;;;;;;7.28;2.97;;;11.80;74.20;;;;;;4123991;28;20041;-86
2022/06/16 04:37:46;;;;;;;9.95;2.95;;;11.80;74.30;;;;;;4136515;28;20048;-86
2022/06/16 04:39:47;;;;;;;7.07;2.45;;;11.80;74.40;;;;;;4117147;28;20035;-87
2022/06/16 04:41:48;;;;;;;6.93;2.75;;;11.90;74.40;;;;;;4116372;28;20088;-87
2022/06/16 04:43:50;;;;;;;6.40;2.63;;;11.90;74.40;;;;;;4121871;28;20529;-87
2022/06/16 04:45:51;;;;;;;7.65;3.08;;;11.90;74.50;;;;;;4122344;28;20125;-85
2022/06/16 04:47:51;;;;;;;10.15;2.97;;;12.00;74.70;;;;;;4130343;28;20116;-86
2022/06/16 04:49:52;;;;;;;7.38;3.28;;;12.10;74.90;;;;;;4138060;28;20049;-86
2022/06/16 04:51:53;;;;;;;10.20;3.40;;;12.10;75.00;;;;;;4136342;28;20122;-86
2022/06/16 04:53:54;;;;;;;10.80;2.67;;;12.10;75.10;;;;;;4138536;28;20034;-86
2022/06/16 04:55:56;;;;;;;9.90;3.53;;;12.20;75.10;;;;;;4113944;28;20028;-86
2022/06/16 04:57:58;;;;;;;10.18;3.30;;;12.20;75.20;;;;;;4120836;28;20026;-86
2022/06/16 04:59:58;;;;;;;7.10;2.90;;;12.40;75.10;;;;;;4133867;28;20031;-86
2022/06/16 05:01:59;;;;;;;12.30;3.05;;;12.40;75.20;;;;;;4132506;28;20038;-87
2022/06/16 05:04:00;;;;;;;9.00;3.33;;;12.40;75.30;;;;;;4138282;28;20033;-86
2022/06/16 05:06:01;;;;;;;14.93;3.22;;;12.50;75.30;;;;;;4103640;28;20412;-86
2022/06/16 05:08:01;;;;;;;7.28;3.10;;;12.50;75.20;;;;;;4135937;28;20399;-87
2022/06/16 05:10:02;;;;;;;12.18;3.35;;;12.60;75.10;;;;;;4122932;28;20383;-85
2022/06/16 05:12:04;;;;;;;16.58;3.40;;;12.60;74.80;;;;;;4137438;28;20034;-89
2022/06/16 05:14:07;;;;;;;8.93;2.92;;;12.70;74.80;;;;;;4142321;28;20041;-88
2022/06/16 05:16:07;;;;;;;9.27;3.10;;;12.70;74.60;;;;;;4119193;28;20035;-89
2022/06/16 05:18:12;;;;;;;12.00;2.90;;;12.80;74.40;;;;;;4109661;28;20027;-87
2022/06/16 05:20:14;;;;;;;11.40;2.88;;;12.90;74.30;;;;;;4104598;28;20496;-86
2022/06/16 05:22:15;;;;;;;9.63;2.92;;;12.90;74.10;;;;;;4119186;28;20034;-87
2022/06/16 05:24:18;;;;;;;7.07;2.20;;;12.90;73.80;;;;;;4101695;28;20038;-88
2022/06/16 05:26:20;;;;;;;;;;;13.00;73.70;;;;;;4124613;28;20042;-87
2022/06/16 05:28:22;;;;;;;4.60;2.47;;;13.00;73.80;;;;;;4117652;28;19920;-85
2022/06/16 05:30:22;;;;;;;9.60;2.35;;;13.10;73.30;;;;;;4142059;28;20069;-87
2022/06/16 05:32:24;;;;;;;8.98;3.08;;;13.10;73.30;;;;;;4101915;28;21421;-87
2022/06/16 05:34:24;;;;;;;6.20;2.35;;;13.20;73.40;;;;;;4107793;28;20085;-87
2022/06/16 05:36:26;;;;;;;5.47;1.70;;;13.30;73.20;;;;;;4102362;28;20023;-88
2022/06/16 05:38:38;;;;;;;7.43;2.10;;;13.30;73.20;;;;;;4123670;23;20134;-83
2022/06/16 05:40:52;;;;;;;;;;;13.40;73.50;;;;;;4129758;28;20682;-85
2022/06/16 05:43:04;;;;;;;9.17;1.87;;;13.40;73.50;;;;;;4146604;28;19909;-84
2022/06/16 05:45:13;;;;;;;12.10;2.15;;;13.60;72.80;;;;;;4113471;28;20741;-85
2022/06/16 05:47:21;;;;;;;8.75;1.83;;;13.70;72.50;;;;;;4127063;28;20041;-85
2022/06/16 05:49:30;;;;;;;6.25;1.65;;;13.80;72.30;;;;;;4122603;28;20101;-87
2022/06/16 05:52:03;;;;;;;8.43;1.90;;;13.90;72.10;;;;;;4105200;28;20085;-84
2022/06/16 05:54:17;;;;;;;6.88;1.75;;;14.00;71.90;;;;;;4123443;28;20018;-85
2022/06/16 05:56:31;;;;;;;7.20;1.17;;;14.20;71.30;;;;;;4123159;28;20082;-86
2022/06/16 06:31:27;;;;;;;7.07;1.52;;;15.20;63.50;;;;;;4239452;23;20058;-84
2022/06/16 06:33:31;;;;;;;9.15;1.40;;;15.20;63.50;;;;;;4136741;23;20401;-83
2022/06/16 06:35:34;;;;;;;9.52;1.83;;;15.30;63.80;;;;;;4155638;28;20111;-84
2022/06/16 06:37:35;;;;;;;4.97;1.70;;;15.30;63.90;;;;;;4125990;28;20038;-84
2022/06/16 06:39:39;;;;;;;6.50;1.73;;;15.40;63.20;;;;;;4140213;28;20093;-85
2022/06/16 06:41:44;;;;;;;7.72;1.50;;;15.40;62.50;;;;;;4126300;28;20049;-83
2022/06/16 06:44:00;;;;;;;3.80;1.40;;;15.40;62.30;;;;;;4133520;28;20037;-84
2022/06/16 06:46:04;;;;;;;7.00;1.77;;;15.60;61.80;;;;;;4124559;28;20027;-84
2022/06/16 06:48:15;;;;;;;3.88;1.08;;;15.60;61.50;;;;;;4112163;28;20023;-84
2022/06/16 06:50:49;;;;;;;6.82;1.20;;;15.70;60.70;;;;;;4106826;28;20055;-84
2022/06/16 06:52:51;;;;;;;8.95;1.33;;;15.70;59.70;;;;;;4087524;28;20039;-85
2022/06/16 06:55:05;;;;;;;6.38;1.38;;;15.70;59.30;;;;;;4140608;28;20057;-85
2022/06/16 06:57:15;;;;;;;9.73;1.70;;;15.70;58.90;;;;;;4121955;28;20022;-85
2022/06/16 06:59:18;;;;;;;6.68;1.20;;;15.80;59.10;;;;;;4124512;28;20085;-84
2022/06/16 07:01:34;;;;;;;7.40;1.25;;;15.80;59.40;;;;;;4107512;28;20023;-87
2022/06/16 07:05:44;;;;;;;4.35;1.08;;;15.80;59.70;;;;;;4141808;28;20054;-85
2022/06/16 07:07:59;;;;;;;5.90;1.35;;;15.80;59.50;;;;;;4144124;28;20053;-85
2022/06/16 07:10:08;;;;;;;6.28;1.60;;;15.90;59.10;;;;;;4104935;28;20027;-85
2022/06/16 07:12:14;;;;;;;6.63;1.10;;;15.80;59.20;;;;;;4143859;28;20448;-85
2022/06/16 07:14:18;;;;;;;5.22;1.42;;;15.90;59.50;;;;;;4124718;28;20027;-85
2022/06/16 07:16:20;;;;;;;5.95;1.25;;;15.90;59.80;;;;;;4144488;28;20039;-86
2022/06/16 07:18:29;;;;;;;6.90;1.50;;;16.00;60.10;;;;;;4122979;28;20516;-85
2022/06/16 07:20:36;;;;;;;5.78;1.23;;;16.00;59.50;;;;;;4111190;28;20038;-86
2022/06/16 07:22:36;;;;;;;4.75;1.10;;;16.00;59.30;;;;;;4144048;28;20030;-86
2022/06/16 07:24:45;;;;;;;7.68;1.10;;;16.10;59.10;;;;;;4140846;23;20129;-89
2022/06/16 07:27:07;;;;;;;5.72;1.08;;;16.10;58.90;;;;;;4101950;28;20554;-89
2022/06/16 07:29:19;;;;;;;4.82;1.10;;;16.20;58.70;;;;;;4126889;28;20029;-88
2022/06/16 07:31:25;;;;;;;3.85;1.02;;;16.30;58.30;;;;;;4123887;28;20041;-87
2022/06/16 07:33:27;;;;;;;6.57;1.42;;;16.30;57.80;;;;;;4115916;28;20501;-87
2022/06/16 07:35:28;;;;;;;5.65;1.20;;;16.40;57.60;;;;;;4123076;28;20025;-87
2022/06/16 07:37:45;;;;;;;4.30;1.13;;;16.40;57.50;;;;;;4102933;28;20090;-89
2022/06/16 07:43:10;;;;;;;6.25;1.65;;;16.50;58.20;;;;;;4111363;28;20026;-88
2022/06/16 07:46:02;;;;;;;;;;;;;;;;;;;;;
2022/06/16 07:51:23;;;;;;;8.82;1.50;;;16.80;56.90;;;;;;4090807;28;20491;-89
2022/06/16 07:54:30;;;;;;;5.05;1.40;;;16.90;56.70;;;;;;4115494;28;20038;-88
2022/06/16 07:56:51;;;;;;;6.10;1.05;;;17.00;56.20;;;;;;4104629;28;20090;-89
2022/06/16 07:59:13;;;;;;;7.13;1.27;;;17.10;56.10;;;;;;4122581;28;20061;-87
2022/06/16 08:01:45;;;;;;;6.45;1.30;;;17.10;55.80;;;;;;4111299;28;20262;-90
2022/06/16 08:04:29;;;;;;;8.43;1.30;;;17.20;56.20;;;;;;4113320;28;20045;-87
2022/06/16 08:06:36;;;;;;;7.65;1.23;;;17.20;55.40;;;;;;4120532;28;20689;-87
2022/06/16 08:08:43;;;;;;;4.85;1.33;;;17.20;56.00;;;;;;4108637;28;20500;-88
2022/06/16 08:12:03;;;;;;;5.85;1.33;;;17.30;56.20;;;;;;4086232;28;20043;-89
2022/06/16 08:14:02;;;;;;;5.13;0.95;;;17.30;56.10;;;;;;4096488;28;20030;-89
2022/06/16 08:16:06;;;;;;;3.25;1.27;;;17.40;55.70;;;;;;4104837;28;20043;-88
2022/06/16 08:18:13;;;;;;;3.03;1.17;;;17.50;55.30;;;;;;4127492;28;20034;-88
2022/06/16 08:20:24;;;;;;;4.85;1.30;;;17.50;55.10;;;;;;4105358;28;20054;-88
2022/06/16 08:22:26;;;;;;;6.35;1.45;;;17.60;55.20;;;;;;4088186;28;20078;-88
2022/06/16 08:24:28;;;;;;;3.72;1.08;;;17.60;55.10;;;;;;4100508;28;20035;-88
2022/06/16 08:26:40;;;;;;;10.13;1.10;;;17.70;54.40;;;;;;4107535;28;20019;-89
2022/06/16 08:28:51;;;;;;;5.30;0.88;;;17.70;52.90;;;;;;4105254;28;20038;-90
2022/06/16 08:30:57;;;;;;;8.40;1.13;;;17.80;53.40;;;;;;4123369;28;20094;-90
2022/06/16 08:33:02;;;;;;;3.83;0.90;;;17.80;52.80;;;;;;4114526;28;20637;-88
2022/06/16 08:35:16;;;;;;;;;;;;;;;;;;;;;
2022/06/16 08:37:17;;;;;;;1.88;0.88;;;17.90;51.20;;;;;;4095199;28;20026;-88
2022/06/16 08:39:20;;;;;;;4.50;0.63;;;18.00;51.10;;;;;;4118014;28;20034;-88
2022/06/16 08:41:35;;;;;;;4.60;1.00;;;18.00;51.00;;;;;;4087091;28;20122;-88
2022/06/16 08:43:39;;;;;;;2.40;0.65;;;18.10;49.70;;;;;;4104331;28;20031;-88
2022/06/16 08:46:03;;;;;;;5.25;0.90;;;18.10;49.70;;;;;;4111940;28;20022;-90
2022/06/16 08:48:18;;;;;;;3.15;0.77;;;18.10;49.90;;;;;;4107614;28;20035;-89
2022/06/16 08:50:52;;;;;;;3.75;1.20;;;18.20;49.80;;;;;;4103892;28;20503;-88
2022/06/16 08:53:18;;;;;;;2.65;0.70;;;18.10;48.80;;;;;;4107797;28;20031;-87
2022/06/16 08:55:52;;;;;;;7.07;1.17;;;18.10;49.10;;;;;;4108613;28;20415;-88
2022/06/16 08:58:28;;;;;;;4.20;0.95;;;18.20;49.60;;;;;;4105304;28;20038;-88
2022/06/16 09:01:10;;;;;;;6.88;1.13;;;18.20;48.70;;;;;;4095620;28;20071;-89
2022/06/16 09:03:12;;;;;;;3.58;0.90;;;18.20;48.80;;;;;;4110125;28;20065;-86
2022/06/16 09:05:55;;;;;;;;;;;;;;;;;;;;;
2022/06/16 09:08:55;;;;;;;4.45;1.00;;;18.30;49.60;;;;;;4126277;28;20458;-89
2022/06/16 09:11:34;;;;;;;5.72;1.15;;;18.30;49.40;;;;;;4102132;28;20462;-90
2022/06/16 09:14:10;;;;;;;3.72;0.80;;;18.40;50.70;;;;;;4122810;28;20030;-89
2022/06/16 09:17:21;;;;;;;5.20;1.52;;;18.40;50.90;;;;;;4113682;28;20106;-89
2022/06/16 09:20:05;;;;;;;2.88;0.80;;;18.60;50.30;;;;;;4111757;28;20109;-90
2022/06/16 09:22:40;;;;;;;2.92;0.80;;;18.60;50.40;;;;;;4059261;29;20583;-89
2022/06/16 09:24:55;;;;;;;3.45;0.70;;;18.80;50.20;;;;;;4043391;29;20024;-91
2022/06/16 09:27:30;;;;;;;1.55;0.57;;;18.80;49.80;;;;;;4075830;28;20451;-90
2022/06/16 09:29:57;;;;;;;5.53;1.50;;;18.90;49.70;;;;;;4126309;28;20495;-89
2022/06/16 09:32:20;;;;;;;4.07;1.00;;;18.90;48.40;;;;;;4119816;28;20088;-90
2022/06/16 09:34:58;;;;;;;9.65;1.20;;;19.00;48.80;;;;;;4119612;28;20502;-90
2022/06/16 09:37:21;;;;;;;4.65;0.70;;;19.00;48.50;;;;;;4107379;28;20078;-91
2022/06/16 09:39:37;;;;;;;4.18;0.90;;;19.10;48.30;;;;;;4109016;28;20135;-91
2022/06/16 09:45:42;;;;;;;2.72;1.10;;;19.10;47.40;;;;;;4120898;28;20105;-89
2022/06/16 09:48:47;;;;;;;3.28;0.90;;;19.10;47.30;;;;;;4075032;28;20023;-88
2022/06/16 09:51:23;;;;;;;4.13;1.00;;;19.10;48.00;;;;;;4100093;28;20042;-89
2022/06/16 09:54:03;;;;;;;3.83;1.00;;;19.10;47.60;;;;;;4103346;28;20034;-91
2022/06/16 10:00:13;;;;;;;6.10;1.35;;;19.20;47.60;;;;;;4161724;23;20045;-87
2022/06/16 10:02:32;;;;;;;3.17;1.00;;;19.20;47.20;;;;;;4068818;29;20633;-85
2022/06/16 10:04:36;;;;;;;2.65;0.90;;;19.10;47.40;;;;;;4081067;29;20027;-86
2022/06/16 10:06:48;;;;;;;4.75;1.20;;;19.20;47.70;;;;;;4062038;29;20039;-85
2022/06/16 10:08:56;;;;;;;5.20;1.05;;;19.20;47.80;;;;;;4078319;28;20702;-84
2022/06/16 10:11:09;;;;;;;2.88;1.00;;;19.20;47.90;;;;;;4127485;28;20030;-85
2022/06/16 10:13:25;;;;;;;5.22;1.17;;;19.30;48.40;;;;;;4106854;28;20058;-86
2022/06/16 10:15:34;;;;;;;3.00;1.00;;;19.30;47.80;;;;;;4119075;28;20030;-86
2022/06/16 10:17:37;;;;;;;2.85;0.75;;;19.30;47.20;;;;;;4108280;28;20524;-85
2022/06/16 10:19:44;;;;;;;3.60;1.05;;;19.40;47.20;;;;;;4110877;28;20030;-87
2022/06/16 10:22:10;;;;;;;4.65;1.00;;;19.40;47.20;;;;;;4112890;28;20508;-84
2022/06/16 10:24:24;;;;;;;4.85;0.93;;;19.40;46.30;;;;;;4119724;28;20101;-85
2022/06/16 10:26:30;;;;;;;4.72;1.02;;;19.40;46.40;;;;;;4090764;28;20031;-87
2022/06/16 10:28:50;;;;;;;4.97;1.00;;;19.50;46.70;;;;;;4110899;28;20089;-87
2022/06/16 10:31:19;;;;;;;6.50;1.05;;;19.50;46.60;;;;;;4113033;28;20046;-83
2022/06/16 10:34:09;;;;;;;5.38;1.17;;;19.50;46.00;;;;;;4108223;28;20061;-83
2022/06/16 10:36:26;;;;;;;5.05;0.93;;;19.50;45.80;;;;;;4118131;28;20042;-84
2022/06/16 10:38:46;;;;;;;4.53;1.02;;;19.60;45.40;;;;;;4111865;28;20054;-85
2022/06/16 10:40:58;;;;;;;3.50;0.90;;;19.60;45.80;;;;;;4110336;28;20039;-85
2022/06/16 10:43:12;;;;;;;9.57;1.30;;;19.60;45.60;;;;;;4127892;28;20157;-85
2022/06/16 10:45:33;;;;;;;2.33;1.02;;;19.60;45.60;;;;;;4108376;28;20060;-86
2022/06/16 10:47:40;;;;;;;3.20;1.20;;;19.60;45.10;;;;;;4125274;28;20061;-86
2022/06/16 10:49:47;;;;;;;6.70;1.10;;;19.70;45.40;;;;;;4111344;28;20108;-86
2022/06/16 10:52:11;;;;;;;4.32;0.90;;;19.70;45.20;;;;;;4110053;28;20015;-85
2022/06/16 10:54:49;;;;;;;4.57;1.15;;;19.70;45.10;;;;;;4107457;28;20085;-86
2022/06/16 10:57:23;;;;;;;2.75;0.90;;;19.70;45.30;;;;;;4111890;28;20401;-85
2022/06/16 10:59:27;;;;;;;3.25;1.10;;;19.70;44.60;;;;;;4110781;28;20743;-85
2022/06/16 11:01:53;;;;;;;4.22;1.13;;;19.70;45.00;;;;;;4109951;28;20106;-85
2022/06/16 11:04:25;;;;;;;3.75;0.98;;;19.80;44.50;;;;;;4125353;28;20086;-86
2022/06/16 11:06:26;;;;;;;4.82;0.70;;;19.80;44.50;;;;;;4125891;28;20023;-84
2022/06/16 11:08:58;;;;;;;6.18;1.10;;;19.80;44.60;;;;;;4137384;28;20038;-85
2022/06/16 11:11:42;;;;;;;8.25;1.00;;;19.80;44.50;;;;;;4128782;28;20053;-86
2022/06/16 11:14:03;;;;;;;1.10;0.63;;;19.80;44.40;;;;;;4113749;28;20029;-85
2022/06/16 11:16:37;;;;;;;4.72;0.80;;;19.90;44.60;;;;;;4114667;28;20461;-85
2022/06/16 11:19:08;;;;;;;4.43;0.80;;;19.90;44.40;;;;;;4112580;28;20433;-87
2022/06/16 11:21:41;;;;;;;6.20;1.02;;;19.90;44.30;;;;;;4112499;28;20023;-87
2022/06/16 11:23:52;;;;;;;5.85;1.00;;;20.00;44.70;;;;;;4094539;28;20114;-85
2022/06/16 11:26:20;;;;;;;2.35;1.02;;;20.00;43.90;;;;;;4103718;28;20058;-85
2022/06/16 11:28:29;;;;;;;4.13;1.15;;;20.00;43.70;;;;;;4125562;28;20038;-87
2022/06/16 11:31:12;;;;;;;;;;;;;;;;;;;;;
2022/06/16 11:37:05;;;;;;;1.83;0.77;;;20.10;44.20;;;;;;4101309;28;20034;-84
2022/06/16 11:39:30;;;;;;;4.50;0.88;;;20.20;43.20;;;;;;4124067;28;20646;-85
2022/06/16 11:41:34;;;;;;;4.90;1.00;;;20.20;43.60;;;;;;4112591;28;20094;-83
2022/06/16 11:44:02;;;;;;;8.35;1.10;;;20.20;43.80;;;;;;4112191;28;20041;-86
2022/06/16 11:46:20;;;;;;;3.63;1.00;;;20.20;44.10;;;;;;4115962;28;20071;-85
2022/06/16 11:49:00;;;;;;;3.17;0.93;;;20.20;43.30;;;;;;4100076;28;20050;-86
2022/06/16 11:51:49;;;;;;;3.30;1.00;;;20.30;43.50;;;;;;4094725;28;20051;-84
2022/06/16 11:54:22;;;;;;;4.28;0.80;;;20.30;42.80;;;;;;4108871;28;20038;-87
2022/06/16 11:56:43;;;;;;;2.25;0.90;;;20.30;43.20;;;;;;4093420;28;20505;-85
2022/06/16 11:59:34;;;;;;;3.33;0.70;;;20.30;41.80;;;;;;4113015;28;20058;-86
2022/06/16 12:01:58;;;;;;;;;;;20.30;42.20;;;;;;4095902;28;20043;-84
2022/06/16 12:04:39;;;;;;;2.05;0.55;;;20.40;42.40;;;;;;4112531;28;19997;-86
2022/06/16 12:07:07;;;;;;;2.97;0.70;;;20.40;42.10;;;;;;4153546;28;20054;-84
2022/06/16 12:09:44;;;;;;;2.72;0.60;;;20.40;42.50;;;;;;4117162;28;20037;-87
2022/06/16 12:12:34;;;;;;;3.03;1.00;;;20.30;42.60;;;;;;4129389;28;20536;-85
2022/06/16 12:15:50;;;;;;;3.80;1.02;;;20.40;41.70;;;;;;4219006;23;20076;-85
2022/06/16 12:18:36;;;;;;;2.92;0.98;;;20.30;42.10;;;;;;4154088;28;20022;-85
2022/06/16 12:21:38;;;;;;;2.65;0.85;;;20.40;42.20;;;;;;4145286;28;20067;-86
2022/06/16 12:24:11;;;;;;;;;;;;;;;;;;;;;
2022/06/16 12:27:35;;;;;;;6.35;1.02;;;20.50;41.30;;;;;;4164278;28;20053;-85
2022/06/16 12:32:58;;;;;;;7.45;1.13;;;20.50;42.30;;;;;;4150555;28;20097;-86
2022/06/16 12:35:57;;;;;;;5.10;1.15;;;20.50;41.70;;;;;;4146447;28;20109;-85
2022/06/16 12:39:02;;;;;;;5.35;0.82;;;20.50;42.10;;;;;;4156067;28;20022;-85
2022/06/16 12:42:01;;;;;;;2.35;0.80;;;20.60;41.70;;;;;;4087039;29;20099;-87
2022/06/16 12:44:21;;;;;;;4.13;1.00;;;20.60;41.20;;;;;;4101476;28;20039;-85
2022/06/16 12:46:55;;;;;;;1.55;0.90;;;20.60;41.80;;;;;;4127632;28;20055;-86
2022/06/16 12:49:33;;;;;;;2.55;0.93;;;20.60;41.60;;;;;;4154614;28;20036;-85